Time;durP1;ratioP1;P1;durP2;ratioP2;P2;SDS_P1;SDS_P2;PMS_P1;PMS_P2;Temp;Humidity;BMP_temperature;BMP_pressure;BME280_temperature;BME280_humidity;BME280_pressure;Samples;Min_cycle;Max_cycle;Signal;HPM_P1;HPM_P2
2021/11/20 00:01:37;;;;;;;6.30;4.93;;;;;;;4.36;100.00;96836.41;4953119;28;20204;-78
2021/11/20 00:04:04;;;;;;;6.43;4.97;;;;;;;4.33;100.00;96836.53;4938123;29;20192;-79
2021/11/20 00:06:33;;;;;;;6.97;5.30;;;;;;;4.31;100.00;96831.47;4954971;28;20205;-78
2021/11/20 00:08:59;;;;;;;7.47;4.90;;;;;;;4.32;100.00;96840.84;4937998;29;20216;-79
2021/11/20 00:11:27;;;;;;;7.17;5.00;;;;;;;4.31;100.00;96828.91;4952971;28;20242;-78
2021/11/20 00:13:53;;;;;;;7.03;5.37;;;;;;;4.31;100.00;96828.91;4953970;28;20188;-79
2021/11/20 00:16:22;;;;;;;7.80;6.00;;;;;;;4.31;100.00;96828.06;4953631;29;20537;-78
2021/11/20 00:18:48;;;;;;;8.40;6.10;;;;;;;4.33;100.00;96826.25;4969678;28;20185;-78
2021/11/20 00:21:17;;;;;;;8.87;6.40;;;;;;;4.30;100.00;96829.81;4952184;28;20185;-79
2021/11/20 00:23:48;;;;;;;7.87;6.00;;;;;;;4.30;100.00;96821.28;4953545;28;20208;-78
2021/11/20 00:26:16;;;;;;;7.70;5.97;;;;;;;4.29;100.00;96824.75;4954216;28;20582;-78
2021/11/20 00:31:28;;;;;;;6.80;5.33;;;;;;;4.28;100.00;96831.66;4953418;28;20696;-79
2021/11/20 00:33:54;;;;;;;7.27;5.43;;;;;;;4.37;100.00;96832.91;4937141;29;20193;-78
2021/11/20 00:36:21;;;;;;;7.90;5.40;;;;;;;4.30;100.00;96832.38;4954226;28;20522;-79
2021/11/20 00:38:46;;;;;;;7.47;5.63;;;;;;;4.26;100.00;96826.59;4937499;29;20319;-78
2021/11/20 00:41:16;;;;;;;6.77;5.43;;;;;;;4.29;100.00;96819.63;4937079;29;20276;-78
2021/11/20 00:43:43;;;;;;;7.13;5.47;;;;;;;4.28;100.00;96823.09;4953661;29;20180;-78
2021/11/20 00:46:09;;;;;;;10.77;5.73;;;;;;;4.25;100.00;96827.50;4954254;29;20173;-78
2021/11/20 00:48:34;;;;;;;7.70;5.47;;;;;;;4.30;100.00;96832.38;4937417;29;20196;-78
2021/11/20 00:51:04;;;;;;;7.20;5.70;;;;;;;4.27;100.00;96822.28;4937360;29;20181;-79
2021/11/20 00:53:30;;;;;;;7.43;4.97;;;;;;;4.31;100.00;96825.50;4953233;28;20226;-79
2021/11/20 00:55:55;;;;;;;7.93;5.60;;;;;;;4.25;100.00;96830.06;4937431;29;20671;-78
2021/11/20 00:58:21;;;;;;;5.90;4.90;;;;;;;4.29;100.00;96819.63;4953421;29;20204;-79
2021/11/20 01:00:52;;;;;;;7.27;5.33;;;;;;;4.26;100.00;96818.03;4953405;29;20185;-79
2021/11/20 01:03:18;;;;;;;6.90;4.90;;;;;;;4.26;100.00;96818.03;4953465;28;20204;-78
2021/11/20 01:05:44;;;;;;;10.10;6.83;;;;;;;4.33;100.00;96821.09;4956940;28;20266;-79
2021/11/20 01:08:11;;;;;;;7.67;5.60;;;;;;;4.34;100.00;96817.66;4940676;29;20208;-78
2021/11/20 01:10:40;;;;;;;9.00;5.60;;;;;;;4.26;100.00;96811.16;4940619;29;20217;-79
2021/11/20 01:13:06;;;;;;;7.33;5.23;;;;;;;4.33;100.00;96809.09;4955764;28;20208;-79
2021/11/20 01:15:35;;;;;;;7.03;5.63;;;;;;;4.31;100.00;96810.91;4956720;28;20185;-78
2021/11/20 01:18:02;;;;;;;7.40;5.50;;;;;;;4.29;100.00;96810.16;4940651;29;20245;-79
2021/11/20 01:20:27;;;;;;;8.60;5.30;;;;;;;4.28;100.00;96805.09;4956960;29;20177;-79
2021/11/20 01:22:53;;;;;;;8.10;5.23;;;;;;;4.22;100.00;96809.63;4955167;29;20224;-78
2021/11/20 01:25:20;;;;;;;8.07;5.17;;;;;;;4.41;100.00;96803.53;4956636;28;20258;-79
2021/11/20 01:27:45;;;;;;;6.30;5.27;;;;;;;4.30;100.00;96801.53;4956406;28;20188;-78
2021/11/20 01:30:11;;;;;;;6.73;5.27;;;;;;;4.28;100.00;96798.22;4955728;28;20221;-79
2021/11/20 01:32:37;;;;;;;7.30;5.50;;;;;;;4.25;100.00;96798.38;4955749;28;20217;-78
2021/11/20 01:35:03;;;;;;;6.50;4.77;;;;;;;4.26;100.00;96802.59;4972531;28;20240;-79
2021/11/20 01:37:29;;;;;;;7.93;5.70;;;;;;;4.37;100.00;96802.06;4972472;28;20205;-78
2021/11/20 01:39:55;;;;;;;9.33;6.20;;;;;;;4.29;100.00;96794.72;4972279;28;20228;-79
2021/11/20 01:42:29;;;;;;;8.40;5.67;;;;;;;4.24;100.00;96792.41;4971917;28;20200;-79
2021/11/20 01:44:58;;;;;;;6.93;5.77;;;;;;;4.19;100.00;96789.22;4956416;28;20192;-79
2021/11/20 01:47:30;;;;;;;8.63;5.77;;;;;;;4.30;100.00;96780.97;4945363;29;20189;-78
2021/11/20 01:50:01;;;;;;;8.67;6.40;;;;;;;4.25;100.00;96782.94;4955721;29;20255;-78
2021/11/20 01:52:48;;;;;;;8.57;6.27;;;;;;;4.22;100.00;96777.94;4971830;28;20197;-78
2021/11/20 01:55:23;;;;;;;8.20;6.00;;;;;;;4.23;100.00;96767.56;4956209;29;20649;-79
2021/11/20 01:58:14;;;;;;;7.30;6.10;;;;;;;4.21;100.00;96764.25;4956012;29;20189;-78
2021/11/20 02:00:44;;;;;;;7.90;5.70;;;;;;;4.23;100.00;96757.28;4972258;28;20172;-78
2021/11/20 02:03:22;;;;;;;8.40;6.47;;;;;;;4.22;100.00;96750.50;4954998;29;20217;-78
2021/11/20 02:06:07;;;;;;;8.27;6.77;;;;;;;4.30;100.00;96759.56;4955782;29;20272;-78
2021/11/20 02:08:44;;;;;;;9.27;6.10;;;;;;;4.29;100.00;96757.91;4955887;29;20212;-79
2021/11/20 02:11:24;;;;;;;7.83;6.50;;;;;;;4.17;100.00;96757.63;4956347;28;20300;-78
2021/11/20 02:13:49;;;;;;;8.30;6.67;;;;;;;4.12;100.00;96746.75;4971877;28;20185;-79
2021/11/20 02:16:38;;;;;;;8.10;6.60;;;;;;;4.08;100.00;96747.00;4970812;28;20181;-78
2021/11/20 02:19:07;;;;;;;8.03;6.77;;;;;;;4.05;100.00;96739.41;4956379;28;20228;-78
2021/11/20 02:21:45;;;;;;;8.00;6.73;;;;;;;4.08;100.00;96736.72;4953592;28;20211;-78
2021/11/20 02:24:10;;;;;;;8.63;6.93;;;;;;;4.09;100.00;96735.78;4955321;28;20205;-78
2021/11/20 02:26:35;;;;;;;9.73;7.30;;;;;;;4.09;100.00;96731.47;4971805;28;20192;-79
2021/11/20 02:29:05;;;;;;;8.60;6.50;;;;;;;4.03;100.00;96726.66;4971459;28;20205;-78
2021/11/20 02:31:30;;;;;;;14.37;7.03;;;;;;;4.04;100.00;96730.88;4938324;29;20661;-78
2021/11/20 02:33:56;;;;;;;7.97;6.63;;;;;;;4.06;100.00;96729.06;4955261;28;20221;-78
2021/11/20 02:36:22;;;;;;;9.13;6.93;;;;;;;4.02;100.00;96722.41;4955036;28;20188;-79
2021/11/20 02:39:13;;;;;;;8.00;6.20;;;;;;;4.09;100.00;96728.91;4954915;29;20644;-78
2021/11/20 02:41:40;;;;;;;9.20;7.03;;;;;;;4.06;100.00;96721.34;4970962;28;20217;-78
2021/11/20 02:44:07;;;;;;;9.53;6.60;;;;;;;4.08;100.00;96716.16;4955107;28;20518;-78
2021/11/20 02:46:36;;;;;;;8.67;6.43;;;;;;;4.04;100.00;96705.16;4971166;28;20264;-78
2021/11/20 02:49:02;;;;;;;7.83;5.87;;;;;;;4.09;100.00;96710.91;4971064;28;20201;-78
2021/11/20 02:51:33;;;;;;;6.70;5.87;;;;;;;4.10;100.00;96706.59;4954449;29;20843;-78
2021/11/20 02:54:02;;;;;;;7.37;5.70;;;;;;;4.11;100.00;96703.94;4956147;28;20178;-78
2021/11/20 02:56:34;;;;;;;8.73;5.80;;;;;;;4.11;100.00;96701.38;4954497;28;20180;-78
2021/11/20 02:58:59;;;;;;;8.00;6.13;;;;;;;4.11;100.00;96703.13;4955010;28;20204;-78
2021/11/20 03:01:28;;;;;;;7.00;5.80;;;;;;;4.15;100.00;96702.03;4953612;29;20205;-79
2021/11/20 03:03:54;;;;;;;7.80;5.70;;;;;;;4.11;100.00;96693.66;4954816;29;20645;-78
2021/11/20 03:06:19;;;;;;;7.30;6.03;;;;;;;4.10;100.00;96692.00;4970750;28;20239;-78
2021/11/20 03:08:45;;;;;;;7.60;5.83;;;;;;;4.14;100.00;96687.53;4970715;28;20747;-78
2021/11/20 03:11:13;;;;;;;8.27;6.00;;;;;;;4.15;100.00;96684.03;4970239;28;20185;-79
2021/11/20 03:13:42;;;;;;;7.13;5.80;;;;;;;4.09;100.00;96685.22;4956100;28;20173;-79
2021/11/20 03:16:08;;;;;;;8.33;5.77;;;;;;;4.22;100.00;96681.06;4954256;28;20672;-79
2021/11/20 03:18:33;;;;;;;8.63;5.80;;;;;;;4.17;100.00;96677.09;4954363;29;20200;-79
2021/11/20 03:20:59;;;;;;;9.00;6.03;;;;;;;4.17;100.00;96677.94;4954187;28;20193;-79
2021/11/20 03:23:31;;;;;;;6.53;5.53;;;;;;;4.14;100.00;96672.94;4968809;28;20217;-78
2021/11/20 03:25:56;;;;;;;6.50;5.50;;;;;;;4.17;100.00;96675.34;4954572;28;20586;-78
2021/11/20 03:28:22;;;;;;;7.13;5.70;;;;;;;4.21;100.00;96676.00;4954500;29;20191;-79
2021/11/20 03:30:49;;;;;;;8.40;6.07;;;;;;;4.18;100.00;96671.03;4953936;29;20241;-79
2021/11/20 03:33:16;;;;;;;7.20;5.10;;;;;;;4.22;100.00;96669.97;4953713;28;20206;-79
2021/11/20 03:35:43;;;;;;;6.27;5.60;;;;;;;4.20;100.00;96671.78;4970709;28;20180;-79
2021/11/20 03:38:09;;;;;;;6.87;5.90;;;;;;;4.21;100.00;96668.31;4938319;29;20741;-78
2021/11/20 03:40:34;;;;;;;8.27;5.67;;;;;;;4.16;100.00;96672.88;4938252;29;20185;-78
2021/11/20 03:43:00;;;;;;;7.23;5.73;;;;;;;4.22;100.00;96665.66;4937093;29;20196;-78
2021/11/20 03:45:28;;;;;;;8.27;5.70;;;;;;;4.23;100.00;96675.00;4954159;28;20184;-78
2021/11/20 03:47:55;;;;;;;9.13;6.40;;;;;;;4.14;100.00;96670.34;4938067;29;20202;-78
2021/11/20 03:50:20;;;;;;;9.00;6.80;;;;;;;4.15;100.00;96673.75;4969947;28;20215;-79
2021/11/20 03:52:47;;;;;;;8.17;6.67;;;;;;;4.15;100.00;96669.47;4952958;29;20201;-78
2021/11/20 03:55:16;;;;;;;9.73;7.03;;;;;;;4.18;100.00;96664.16;4970328;28;20579;-78
2021/11/20 03:57:41;;;;;;;9.77;6.87;;;;;;;4.11;100.00;96662.00;4969857;28;20180;-78
2021/11/20 04:00:10;;;;;;;8.77;6.47;;;;;;;4.14;100.00;96656.69;4954344;28;20641;-78
2021/11/20 04:02:36;;;;;;;8.77;6.97;;;;;;;4.16;99.79;96663.41;4953173;28;20192;-78
2021/11/20 04:05:01;;;;;;;8.30;6.20;;;;;;;4.20;99.74;96657.19;4953652;29;20175;-78
2021/11/20 04:07:27;;;;;;;8.93;6.53;;;;;;;4.28;99.35;96668.81;4953939;28;20629;-79
2021/11/20 04:09:52;;;;;;;8.13;6.43;;;;;;;4.24;99.33;96661.28;4953718;28;20216;-78
2021/11/20 04:12:17;;;;;;;8.37;6.40;;;;;;;4.19;99.21;96662.41;4969743;28;20564;-78
2021/11/20 04:14:43;;;;;;;9.23;7.07;;;;;;;4.16;99.31;96653.13;4969937;28;20645;-79
2021/11/20 04:17:08;;;;;;;9.53;6.73;;;;;;;4.22;99.68;96650.22;4970241;28;20175;-78
2021/11/20 04:19:33;;;;;;;9.83;7.13;;;;;;;4.20;99.07;96652.03;4969902;28;20201;-79
2021/11/20 04:21:59;;;;;;;10.30;6.37;;;;;;;4.19;99.22;96649.56;4968207;28;20254;-78
2021/11/20 04:24:24;;;;;;;9.93;7.17;;;;;;;4.18;99.45;96648.72;4970000;28;20204;-79
2021/11/20 04:26:51;;;;;;;9.47;7.10;;;;;;;4.18;99.44;96651.31;4969668;28;20195;-78
2021/11/20 04:29:16;;;;;;;9.47;7.07;;;;;;;4.23;99.14;96635.63;4969878;28;20692;-78
2021/11/20 04:31:42;;;;;;;10.17;7.33;;;;;;;4.23;99.01;96639.03;4952627;28;20271;-79
2021/11/20 04:34:07;;;;;;;9.73;7.70;;;;;;;4.31;98.97;96637.78;4969965;28;20190;-79
2021/11/20 04:36:33;;;;;;;9.67;7.07;;;;;;;4.28;98.28;96643.09;4953942;28;20223;-78
2021/11/20 04:38:58;;;;;;;11.13;8.13;;;;;;;4.26;98.59;96641.44;4956244;28;20184;-78
2021/11/20 04:41:24;;;;;;;10.33;7.43;;;;;;;4.25;98.64;96637.22;4972999;28;20189;-79
2021/11/20 04:43:50;;;;;;;9.73;7.33;;;;;;;4.34;98.39;96635.06;4973764;28;20181;-78
2021/11/20 04:46:17;;;;;;;10.17;7.63;;;;;;;4.24;98.46;96633.00;4957294;29;20221;-79
2021/11/20 04:48:42;;;;;;;11.07;8.37;;;;;;;4.28;98.75;96623.34;4957488;28;20189;-78
2021/11/20 04:51:08;;;;;;;14.97;8.70;;;;;;;4.22;98.58;96619.38;4956850;29;20185;-78
2021/11/20 04:53:36;;;;;;;9.93;8.07;;;;;;;4.38;98.36;96616.78;4973645;28;20205;-78
2021/11/20 04:56:03;;;;;;;12.87;9.80;;;;;;;4.26;97.90;96615.72;4957174;29;20181;-78
2021/11/20 04:58:29;;;;;;;11.83;9.10;;;;;;;4.33;98.59;96610.22;4957485;28;20189;-78
2021/11/20 05:00:56;;;;;;;13.43;9.57;;;;;;;4.29;98.04;96603.63;4956826;29;20219;-78
2021/11/20 05:03:22;;;;;;;12.60;9.67;;;;;;;4.26;98.39;96602.88;4940553;29;20205;-78
2021/11/20 05:05:50;;;;;;;15.13;11.33;;;;;;;4.28;98.60;96602.78;4958266;28;20247;-78
2021/11/20 05:08:16;;;;;;;16.57;11.00;;;;;;;4.26;98.07;96599.47;4957088;29;20181;-79
2021/11/20 05:10:42;;;;;;;14.97;10.80;;;;;;;4.22;98.41;96603.94;4972584;28;20216;-78
2021/11/20 05:13:09;;;;;;;14.03;10.07;;;;;;;4.21;98.54;96601.47;4972087;28;20204;-78
2021/11/20 05:15:36;;;;;;;13.67;10.27;;;;;;;4.20;98.64;96600.63;4956397;28;20196;-78
2021/11/20 05:18:02;;;;;;;15.70;11.47;;;;;;;4.17;98.47;96590.53;4956742;28;20196;-78
2021/11/20 05:20:27;;;;;;;14.77;11.07;;;;;;;4.21;97.68;96593.75;4957128;28;20180;-78
2021/11/20 05:22:53;;;;;;;13.37;10.50;;;;;;;4.14;97.88;96585.53;4971113;28;20340;-79
2021/11/20 05:25:20;;;;;;;14.40;10.50;;;;;;;4.10;97.76;96580.66;4956897;28;20188;-78
2021/11/20 05:27:47;;;;;;;13.83;9.80;;;;;;;4.04;97.53;96575.81;4956421;28;20231;-78
2021/11/20 05:30:16;;;;;;;12.80;9.37;;;;;;;3.95;97.80;96582.28;4972882;28;20288;-79
2021/11/20 05:32:47;;;;;;;14.63;10.13;;;;;;;3.89;98.21;96586.03;4971596;28;20765;-78
2021/11/20 05:35:13;;;;;;;14.43;9.67;;;;;;;3.88;98.51;96580.94;4940784;29;20181;-79
2021/11/20 05:37:38;;;;;;;12.53;9.27;;;;;;;3.97;97.87;96576.16;4956814;29;20185;-78
2021/11/20 05:40:06;;;;;;;12.00;9.10;;;;;;;3.84;98.24;96579.47;4957781;28;20236;-78
2021/11/20 05:42:32;;;;;;;14.80;9.50;;;;;;;3.93;98.12;96571.28;4940228;29;20215;-79
2021/11/20 05:44:57;;;;;;;12.73;9.30;;;;;;;3.84;97.72;96569.19;4956646;28;20182;-78
2021/11/20 05:47:22;;;;;;;12.87;9.37;;;;;;;3.69;98.23;96579.34;4956231;29;20250;-79
2021/11/20 05:49:48;;;;;;;13.30;9.07;;;;;;;3.68;98.13;96582.00;4971658;28;20213;-78
2021/11/20 05:52:14;;;;;;;12.73;8.80;;;;;;;3.65;98.37;96577.03;4955132;28;20215;-79
2021/11/20 05:54:41;;;;;;;11.70;9.07;;;;;;;3.63;99.01;96577.13;4956173;29;20221;-79
2021/11/20 05:57:06;;;;;;;13.27;8.83;;;;;;;3.67;98.47;96570.91;4971881;28;20190;-78
2021/11/20 05:59:32;;;;;;;12.73;9.03;;;;;;;3.69;98.24;96576.78;4956051;29;20210;-78
2021/11/20 06:01:57;;;;;;;12.70;8.70;;;;;;;3.64;98.42;96575.38;4955557;29;20738;-79
2021/11/20 06:04:22;;;;;;;12.50;9.27;;;;;;;3.65;98.57;96575.31;4972144;28;20191;-79
2021/11/20 06:06:48;;;;;;;12.47;9.70;;;;;;;3.60;98.33;96574.69;4957061;28;20187;-78
2021/11/20 06:09:14;;;;;;;14.77;10.13;;;;;;;3.58;98.94;96566.25;4939924;29;20209;-77
2021/11/20 06:11:39;;;;;;;12.73;9.53;;;;;;;3.57;98.93;96563.75;4971974;28;20197;-78
2021/11/20 06:14:05;;;;;;;11.73;8.83;;;;;;;3.61;98.86;96563.50;4956707;29;20232;-78
2021/11/20 06:16:32;;;;;;;13.77;10.00;;;;;;;3.57;99.32;96558.63;4972777;28;20184;-78
2021/11/20 06:18:57;;;;;;;14.43;10.20;;;;;;;3.55;98.68;96556.16;4956789;29;20186;-78
2021/11/20 06:21:22;;;;;;;13.73;9.53;;;;;;;3.53;98.84;96557.13;4954120;28;20218;-78
2021/11/20 06:23:48;;;;;;;15.10;10.57;;;;;;;3.62;98.96;96557.50;4972457;28;20191;-78
2021/11/20 06:26:13;;;;;;;15.03;10.87;;;;;;;3.58;98.67;96557.72;4940144;29;20592;-79
2021/11/20 06:28:39;;;;;;;15.40;10.23;;;;;;;3.64;99.13;96555.66;4971969;28;20183;-78
2021/11/20 06:31:06;;;;;;;16.10;9.80;;;;;;;3.62;98.41;96554.06;4971973;28;20214;-79
2021/11/20 06:33:32;;;;;;;15.40;10.27;;;;;;;3.65;98.72;96551.34;4971704;28;20179;-78
2021/11/20 06:35:58;;;;;;;15.73;10.63;;;;;;;3.60;98.49;96550.75;4955846;29;20185;-78
2021/11/20 06:38:25;;;;;;;15.90;9.97;;;;;;;3.63;98.50;96560.88;4956076;28;20199;-78
2021/11/20 06:40:52;;;;;;;13.40;10.00;;;;;;;3.68;98.62;96557.16;4955881;28;20587;-79
2021/11/20 06:43:21;;;;;;;14.60;10.03;;;;;;;3.63;98.62;96558.31;4954865;29;20204;-78
2021/11/20 06:45:48;;;;;;;12.50;9.70;;;;;;;3.60;98.19;96558.47;4954812;28;20239;-78
2021/11/20 06:48:15;;;;;;;14.87;10.20;;;;;;;3.64;98.82;96559.97;4970894;28;20188;-78
2021/11/20 06:50:41;;;;;;;13.73;10.07;;;;;;;3.58;98.65;96561.13;4954689;29;20216;-78
2021/11/20 06:53:09;;;;;;;14.40;10.43;;;;;;;3.55;99.15;96558.72;4954133;28;20209;-78
2021/11/20 06:55:35;;;;;;;15.67;10.23;;;;;;;3.65;99.36;96554.75;4970754;28;20206;-78
2021/11/20 07:00:52;;;;;;;13.63;9.83;;;;;;;3.73;99.03;96566.38;4953980;28;20600;-78
2021/11/20 07:03:25;;;;;;;13.57;9.43;;;;;;;3.76;99.20;96564.44;4969726;28;20195;-78
2021/11/20 07:06:08;;;;;;;13.73;10.13;;;;;;;3.80;99.54;96563.41;4955606;28;20640;-79
2021/11/20 07:08:33;;;;;;;13.27;9.50;;;;;;;3.94;99.01;96553.19;4969881;28;20189;-79
2021/11/20 07:11:00;;;;;;;13.67;9.40;;;;;;;3.93;98.70;96559.25;4954637;29;20188;-76
2021/11/20 07:13:25;;;;;;;14.03;9.33;;;;;;;4.02;99.16;96562.22;4955460;28;20296;-80
2021/11/20 07:15:52;;;;;;;14.60;9.63;;;;;;;3.98;98.76;96562.41;4955812;28;20205;-80
2021/11/20 07:18:18;;;;;;;14.70;10.00;;;;;;;3.98;98.96;96566.72;4956011;28;20195;-79
2021/11/20 07:20:43;;;;;;;13.17;9.27;;;;;;;4.07;98.85;96561.09;4939495;29;20276;-80
2021/11/20 07:23:09;;;;;;;14.60;10.17;;;;;;;4.05;98.88;96559.50;4938715;29;20222;-80
2021/11/20 07:25:35;;;;;;;15.03;10.07;;;;;;;4.05;99.31;96560.31;4954472;28;20192;-80
2021/11/20 07:28:01;;;;;;;12.90;9.00;;;;;;;4.09;99.17;96561.00;4968512;28;20199;-80
2021/11/20 07:30:29;;;;;;;16.27;10.10;;;;;;;4.20;99.05;96558.66;4955523;28;20267;-78
2021/11/20 07:32:55;;;;;;;14.43;9.70;;;;;;;4.21;98.74;96555.19;4955243;28;20211;-78
2021/11/20 07:35:34;;;;;;;12.87;8.80;;;;;;;4.24;98.63;96549.84;4973700;28;20176;-79
2021/11/20 07:38:00;;;;;;;13.23;9.50;;;;;;;4.24;98.85;96553.28;4973630;28;20271;-78
2021/11/20 07:40:27;;;;;;;15.27;9.80;;;;;;;4.25;98.85;96559.25;4973762;28;20215;-78
2021/11/20 07:42:52;;;;;;;12.30;8.37;;;;;;;4.26;98.82;96559.16;4973209;28;20208;-79
2021/11/20 07:45:18;;;;;;;11.40;8.70;;;;;;;4.33;98.91;96558.81;4973848;28;20202;-79
2021/11/20 07:47:44;;;;;;;15.00;8.63;;;;;;;4.37;99.01;96555.16;4957429;28;20674;-79
2021/11/20 07:50:09;;;;;;;12.10;8.00;;;;;;;4.47;97.97;96546.03;4957393;28;20208;-79
2021/11/20 07:52:35;;;;;;;13.43;7.70;;;;;;;4.42;98.56;96540.31;4956679;28;20204;-79
2021/11/20 07:55:00;;;;;;;9.23;7.20;;;;;;;4.48;97.58;96545.94;4957221;28;20184;-78
2021/11/20 07:57:25;;;;;;;9.97;7.47;;;;;;;4.44;97.91;96541.88;4973795;28;20191;-79
2021/11/20 07:59:51;;;;;;;10.80;7.27;;;;;;;4.48;97.97;96538.22;4973092;28;20215;-79
2021/11/20 08:02:16;;;;;;;9.00;6.30;;;;;;;4.49;97.83;96533.91;4956604;28;20200;-79
2021/11/20 08:04:42;;;;;;;7.93;5.30;;;;;;;4.46;98.06;96531.50;4974425;28;20181;-78
2021/11/20 08:07:08;;;;;;;6.50;4.70;;;;;;;4.51;98.09;96529.50;4972369;28;20187;-79
2021/11/20 08:09:35;;;;;;;8.77;5.70;;;;;;;4.49;98.10;96524.44;4956876;28;20215;-79
2021/11/20 08:12:01;;;;;;;9.00;4.53;;;;;;;4.52;97.77;96528.59;4972846;28;20293;-78
2021/11/20 08:14:26;;;;;;;5.90;4.80;;;;;;;4.55;97.83;96524.09;4977710;28;20243;-77
2021/11/20 08:16:51;;;;;;;6.23;4.80;;;;;;;4.56;97.67;96514.63;4961021;28;20186;-79
2021/11/20 08:19:17;;;;;;;6.87;5.27;;;;;;;4.59;97.92;96504.16;4976770;28;20273;-78
2021/11/20 08:21:43;;;;;;;5.77;4.47;;;;;;;4.62;98.22;96508.31;4960386;28;20205;-80
2021/11/20 08:24:09;;;;;;;6.83;4.63;;;;;;;4.70;97.77;96501.00;4961255;28;20672;-78
2021/11/20 08:26:37;;;;;;;5.97;4.40;;;;;;;4.68;97.56;96503.66;4961596;28;20199;-79
2021/11/20 08:29:12;;;;;;;6.60;4.60;;;;;;;4.76;97.19;96501.44;4976981;28;20291;-78
2021/11/20 08:31:40;;;;;;;6.23;5.10;;;;;;;4.77;97.05;96492.84;4961883;28;20614;-77
2021/11/20 08:34:06;;;;;;;6.60;4.10;;;;;;;4.77;96.31;96491.97;4980626;28;20189;-77
2021/11/20 08:36:31;;;;;;;5.17;3.70;;;;;;;4.78;96.75;96491.91;4961192;28;20210;-78
2021/11/20 08:38:57;;;;;;;6.17;4.40;;;;;;;4.76;96.68;96485.19;4960773;28;20214;-80
2021/11/20 08:41:22;;;;;;;4.50;3.83;;;;;;;4.67;96.58;96483.13;4960285;28;20204;-79
2021/11/20 08:43:47;;;;;;;3.50;2.97;;;;;;;4.70;96.58;96483.81;4960181;28;20238;-79
2021/11/20 08:46:12;;;;;;;3.27;2.77;;;;;;;4.67;96.41;96491.69;4976307;28;20192;-81
2021/11/20 08:48:38;;;;;;;4.10;3.47;;;;;;;4.62;96.68;96488.56;4960817;28;20208;-80
2021/11/20 08:51:12;;;;;;;4.10;3.53;;;;;;;4.76;96.33;96490.31;4977294;28;20229;-79
2021/11/20 08:53:37;;;;;;;4.30;3.43;;;;;;;4.69;96.36;96487.31;4960398;28;20293;-79
2021/11/20 08:56:03;;;;;;;5.03;3.50;;;;;;;4.68;96.15;96483.06;4977084;28;20188;-79
2021/11/20 08:58:28;;;;;;;5.20;3.97;;;;;;;4.63;96.51;96477.34;4960992;28;20191;-79
2021/11/20 09:01:01;;;;;;;5.23;4.00;;;;;;;4.63;96.37;96472.22;4960398;28;20180;-79
2021/11/20 09:03:44;;;;;;;5.00;4.30;;;;;;;4.58;96.17;96481.91;4976249;28;20258;-77
2021/11/20 09:06:21;;;;;;;5.90;3.90;;;;;;;4.67;95.54;96481.38;4959349;28;20720;-78
2021/11/20 09:09:10;;;;;;;5.03;3.93;;;;;;;4.67;95.28;96480.56;4976154;28;20226;-78
2021/11/20 09:11:55;;;;;;;6.13;4.33;;;;;;;4.53;95.65;96492.50;4974826;28;20212;-78
2021/11/20 09:14:28;;;;;;;4.37;3.60;;;;;;;4.59;96.15;96472.47;4960651;28;20188;-79
2021/11/20 09:16:59;;;;;;;5.37;3.77;;;;;;;4.65;95.79;96477.25;4977199;28;20192;-78
2021/11/20 09:19:29;;;;;;;9.50;5.47;;;;;;;4.64;95.90;96470.47;4976718;28;20203;-79
2021/11/20 09:21:57;;;;;;;6.83;4.87;;;;;;;4.69;96.20;96474.44;4959063;28;20208;-78
2021/11/20 09:24:24;;;;;;;6.00;4.00;;;;;;;4.70;95.97;96473.50;4975797;28;20179;-77
2021/11/20 09:26:50;;;;;;;6.23;4.60;;;;;;;4.75;95.52;96474.06;4975843;28;20720;-78
2021/11/20 09:29:17;;;;;;;7.93;6.63;;;;;;;4.77;95.56;96472.25;4959941;28;20236;-79
2021/11/20 09:31:44;;;;;;;4.90;4.40;;;;;;;4.77;95.10;96468.81;4975734;28;20193;-79
2021/11/20 09:34:11;;;;;;;6.30;4.50;;;;;;;4.77;94.27;96471.38;4976227;28;20173;-78
2021/11/20 09:36:36;;;;;;;3.73;3.20;;;;;;;4.85;95.05;96461.47;4975240;28;20180;-78
2021/11/20 09:39:06;;;;;;;4.00;3.10;;;;;;;4.90;94.74;96467.19;4959799;28;20207;-78
2021/11/20 09:41:43;;;;;;;6.07;3.13;;;;;;;4.95;94.22;96466.94;4959250;28;20211;-77
2021/11/20 09:44:09;;;;;;;3.70;3.00;;;;;;;4.89;94.18;96455.25;4960704;28;20654;-79
2021/11/20 09:46:38;;;;;;;6.47;3.97;;;;;;;5.00;94.34;96460.56;4975249;28;20264;-78
2021/11/20 09:49:06;;;;;;;9.33;4.67;;;;;;;4.89;94.66;96460.41;4959294;28;20210;-78
2021/11/20 09:51:34;;;;;;;5.07;4.33;;;;;;;4.99;94.70;96456.34;4974934;28;20712;-79
2021/11/20 09:54:03;;;;;;;5.37;4.03;;;;;;;5.09;94.14;96452.31;4976244;28;20181;-79
2021/11/20 09:56:31;;;;;;;9.77;4.07;;;;;;;5.10;94.11;96443.66;4975930;28;20180;-79
2021/11/20 09:59:04;;;;;;;5.13;3.80;;;;;;;5.10;94.03;96445.41;4977290;28;20550;-79
2021/11/20 10:01:34;;;;;;;4.27;3.57;;;;;;;5.07;93.50;96437.88;4958146;28;20200;-79
2021/11/20 10:04:03;;;;;;;5.63;4.10;;;;;;;5.09;93.24;96428.31;4976799;28;20177;-80
2021/11/20 10:06:29;;;;;;;7.33;5.37;;;;;;;4.90;93.30;96428.59;4976531;28;20229;-80
2021/11/20 10:09:12;;;;;;;6.87;5.30;;;;;;;4.82;93.64;96429.03;4976261;28;20191;-79
2021/11/20 10:12:06;;;;;;;6.23;4.77;;;;;;;4.96;93.02;96425.66;4975628;28;20200;-79
2021/11/20 10:14:36;;;;;;;6.73;4.60;;;;;;;4.95;92.98;96428.31;4959803;28;20195;-79
2021/11/20 10:17:26;;;;;;;6.40;4.30;;;;;;;4.96;93.16;96429.97;4976246;28;20187;-79
2021/11/20 10:19:56;;;;;;;7.87;5.30;;;;;;;5.04;92.87;96432.91;4960682;28;20179;-80
2021/11/20 10:22:39;;;;;;;7.33;4.33;;;;;;;5.01;92.47;96426.19;4958363;28;20220;-79
2021/11/20 10:25:19;;;;;;;6.00;4.43;;;;;;;5.00;92.63;96428.88;4976033;28;20283;-80
2021/11/20 10:28:00;;;;;;;7.40;4.40;;;;;;;4.99;93.01;96425.47;4976530;28;20195;-80
2021/11/20 10:30:37;;;;;;;6.97;4.73;;;;;;;4.99;92.70;96427.22;4960786;28;20220;-80
2021/11/20 10:33:12;;;;;;;5.47;4.87;;;;;;;4.99;93.19;96429.78;4974988;28;20200;-80
2021/11/20 10:36:06;;;;;;;6.50;4.57;;;;;;;5.03;92.98;96420.94;4975163;28;20234;-79
2021/11/20 10:38:39;;;;;;;6.67;4.13;;;;;;;4.99;92.53;96415.16;4959810;28;20816;-79
2021/11/20 10:41:30;;;;;;;6.67;5.30;;;;;;;5.10;93.09;96419.66;4975214;28;20652;-79
2021/11/20 10:44:09;;;;;;;9.40;6.67;;;;;;;5.13;92.55;96406.63;4977510;28;20676;-80
2021/11/20 10:46:57;;;;;;;5.93;4.90;;;;;;;5.18;92.83;96402.00;4959957;28;20219;-79
2021/11/20 10:49:50;;;;;;;5.90;4.73;;;;;;;5.21;91.89;96400.97;4973468;28;20208;-79
2021/11/20 10:52:33;;;;;;;9.73;6.03;;;;;;;5.16;91.60;96396.13;4973094;28;20235;-79
2021/11/20 10:55:17;;;;;;;7.37;5.10;;;;;;;5.10;91.76;96392.16;4976597;28;20192;-80
2021/11/20 10:58:25;;;;;;;9.70;7.03;;;;;;;5.00;92.46;96391.06;4976589;28;20176;-79
2021/11/20 11:01:15;;;;;;;7.53;6.70;;;;;;;5.08;91.82;96388.03;4975275;28;20183;-78
2021/11/20 11:04:03;;;;;;;5.47;4.80;;;;;;;5.10;92.18;96383.63;4974232;28;20268;-79
2021/11/20 11:06:38;;;;;;;5.37;4.40;;;;;;;4.98;92.10;96377.47;4961011;28;20188;-80
2021/11/20 11:09:17;;;;;;;6.60;5.07;;;;;;;5.04;92.13;96366.00;4961234;28;20503;-80
2021/11/20 11:12:18;;;;;;;6.53;5.40;;;;;;;5.08;92.91;96359.72;4976327;28;20211;-80
2021/11/20 11:15:02;;;;;;;7.07;4.90;;;;;;;5.25;92.21;96353.53;4938561;28;20203;-79
2021/11/20 11:17:55;;;;;;;6.23;4.53;;;;;;;5.38;90.69;96356.97;4977071;28;20265;-80
2021/11/20 11:20:35;;;;;;;5.03;3.93;;;;;;;5.34;91.36;96347.81;4976975;28;20200;-79
2021/11/20 11:23:13;;;;;;;6.43;4.67;;;;;;;5.29;91.41;96339.53;4977692;28;20651;-80
2021/11/20 11:26:12;;;;;;;7.00;4.10;;;;;;;5.44;90.84;96333.41;4978264;28;20223;-79
2021/11/20 11:29:01;;;;;;;4.80;4.23;;;;;;;5.33;90.99;96341.00;4976619;28;20255;-80
2021/11/20 11:31:35;;;;;;;6.17;4.43;;;;;;;5.27;91.07;96336.22;4960131;28;20512;-79
2021/11/20 11:34:19;;;;;;;6.10;4.10;;;;;;;5.33;90.75;96339.25;4974713;28;20187;-78
2021/11/20 11:37:09;;;;;;;5.33;4.77;;;;;;;5.46;90.39;96333.31;4967507;28;20371;-79
2021/11/20 11:39:47;;;;;;;5.37;4.47;;;;;;;5.49;89.69;96321.09;4975692;28;20191;-78
2021/11/20 11:42:22;;;;;;;5.87;5.03;;;;;;;5.51;90.38;96324.38;4975462;28;20224;-78
2021/11/20 11:45:07;;;;;;;13.27;9.93;;;;;;;5.43;90.46;96315.50;4974671;28;20184;-78
2021/11/20 11:47:54;;;;;;;7.67;5.53;;;;;;;5.37;90.78;96311.53;4973477;28;20208;-79
2021/11/20 11:50:25;;;;;;;7.70;5.77;;;;;;;5.44;90.27;96312.00;4974749;28;20715;-79
2021/11/20 11:52:56;;;;;;;7.60;5.90;;;;;;;5.43;90.45;96305.19;4975767;28;20201;-79
2021/11/20 11:55:26;;;;;;;9.33;4.87;;;;;;;5.59;90.14;96290.41;4975392;28;20648;-80